KDK weather

Kodiak Municipal Airport
Kodiak, Alaska, United States

Public forecast

Using degrees Fahrenheit for public forecast. Weather courtesy of forecast.io.

METAR (pilot weather report)

Closest report is Kodiak Airport, 5.1 nm (9.4 km) SW. Retrieved 2019/07/18 13:53 UTC (59 minutes ago):

PADQ 181353Z 29013KT 10SM CLR 17/10 A2977

TAF (pilot weather forecast)

Closest forecast is Kodiak Airport, 5.1 nm (9.4 km) SW. Retrieved 2019/07/18 12:33 UTC (2 hours ago):

TAF PADQ 181131Z 1812/1912 30010KT P6SM FEW040 SCT100